.
WxDataArchive / Data Records for 2009-11-24
2009-11-23 November 2009 2009-11-25

Data Records for Tuesday, 24 November 2009

Time	Temp	Chill	HIndex	Humid	Dewpt	 Wind 	HiWind	WindDir	Rain 	Barom 
-----	----	-----	------	-----	-----	------	------	-------	-----	----- 
00:00	39.8	39.8	39.8	96	38.8	0	1	90	0.00	30.145 
00:05	39.8	39.8	39.8	96	38.8	0	1	90	0.00	30.145 
00:10	39.8	39.8	39.8	96	38.8	0	0	---	0.00	30.145 
00:15	39.6	39.6	39.6	96	38.6	0	0	---	0.00	30.142 
00:20	39.6	39.6	39.6	96	38.6	0	0	---	0.00	30.142 
00:25	39.6	39.6	39.6	96	38.6	0	0	---	0.00	30.142 
00:30	39.3	39.3	39.3	96	38.3	0	1	90	0.00	30.143 
00:35	39.2	39.2	39.2	96	38.2	0	2	90	0.00	30.143 
00:40	39.1	39.1	39.1	96	38.1	0	2	90	0.00	30.143 
00:45	38.8	38.8	38.8	96	37.8	0	1	90	0.00	30.140 
00:50	38.8	38.8	38.8	96	37.8	0	0	---	0.00	30.140 
00:55	38.6	38.6	38.6	96	37.6	0	1	90	0.00	30.140 
01:00	38.6	38.6	38.6	96	37.6	0	0	---	0.00	30.135 
01:05	38.5	38.5	38.5	96	37.5	0	1	90	0.00	30.135 
01:10	38.3	38.3	38.3	96	37.3	0	0	---	0.00	30.135 
01:15	38.3	38.3	38.3	96	37.3	0	0	---	0.00	30.132 
01:20	38.3	38.3	38.3	96	37.3	0	0	---	0.00	30.132 
01:25	38.3	38.3	38.3	96	37.3	0	0	---	0.00	30.132 
01:30	38.2	38.2	38.2	96	37.2	0	0	---	0.00	30.132 
01:35	38.2	38.2	38.2	96	37.2	0	0	---	0.00	30.132 
01:40	38.2	38.2	38.2	96	37.2	0	0	---	0.00	30.132 
01:45	38.0	38.0	38.0	96	37.0	0	0	---	0.00	30.132 
01:50	38.0	38.0	38.0	96	37.0	0	0	---	0.00	30.132 
01:55	37.9	37.9	37.9	96	36.9	0	2	90	0.00	30.132 
02:00	37.8	37.8	37.8	96	36.8	0	1	90	0.00	30.137 
02:05	37.6	37.6	37.6	96	36.6	0	1	90	0.00	30.137 
02:10	37.6	37.6	37.6	96	36.6	0	1	90	0.00	30.137 
02:15	37.5	37.5	37.5	96	36.5	0	1	90	0.00	30.138 
02:20	37.5	37.5	37.5	96	36.5	0	0	---	0.00	30.138 
02:25	37.3	37.3	37.3	96	36.3	0	0	---	0.00	30.138 
02:30	37.3	37.3	37.3	96	36.3	0	0	---	0.00	30.139 
02:35	37.3	37.3	37.3	96	36.3	0	0	---	0.00	30.139 
02:40	37.3	37.3	37.3	96	36.3	0	0	---	0.00	30.139 
02:45	37.3	37.3	37.3	96	36.3	0	0	---	0.00	30.141 
02:50	37.2	37.2	37.2	96	36.2	0	0	---	0.00	30.141 
02:55	37.2	37.2	37.2	96	36.2	0	0	---	0.00	30.141 
03:00	37.2	37.2	37.2	96	36.2	0	0	---	0.00	30.136 
03:05	37.0	37.0	37.0	96	36.0	0	1	90	0.00	30.136 
03:10	37.0	37.0	37.0	96	36.0	0	0	---	0.00	30.136 
03:15	37.0	37.0	37.0	96	36.0	0	0	---	0.00	30.138 
03:20	36.9	36.9	36.9	96	35.9	0	0	---	0.00	30.138 
03:25	36.9	36.9	36.9	96	35.9	0	0	---	0.00	30.138 
03:30	36.9	36.9	36.9	96	35.9	0	1	90	0.00	30.145 
03:35	36.8	36.8	36.8	96	35.8	0	0	---	0.00	30.145 
03:40	36.6	36.6	36.6	96	35.6	0	1	90	0.00	30.145 
03:45	36.5	36.5	36.5	96	35.5	0	0	---	0.00	30.145 
03:50	36.3	36.3	36.3	96	35.3	0	1	90	0.00	30.145 
03:55	36.2	36.2	36.2	96	35.2	0	0	---	0.00	30.145 
04:00	36.0	36.0	36.0	96	35.0	0	1	90	0.00	30.147 
04:05	36.0	36.0	36.0	96	35.0	0	0	---	0.00	30.147 
04:10	36.0	36.0	36.0	96	35.0	0	0	---	0.00	30.147 
04:15	36.0	36.0	36.0	96	35.0	0	1	90	0.00	30.147 
04:20	36.0	36.0	36.0	97	35.2	0	1	90	0.00	30.147 
04:25	36.0	36.0	36.0	96	35.0	0	0	---	0.00	30.147 
04:30	36.0	36.0	36.0	96	35.0	0	0	---	0.00	30.147 
04:35	36.0	36.0	36.0	97	35.2	0	0	---	0.00	30.147 
04:40	36.0	36.0	36.0	97	35.2	0	0	---	0.01	30.147 
04:45	36.0	36.0	36.0	97	35.2	0	0	---	0.00	30.147 
04:50	35.9	35.9	35.9	97	35.1	0	0	---	0.00	30.147 
04:55	35.9	35.9	35.9	97	35.1	0	0	---	0.00	30.147 
05:00	35.8	35.8	35.8	97	35.0	0	0	---	0.00	30.146 
05:05	35.8	35.8	35.8	97	35.0	0	0	---	0.00	30.146 
05:10	35.8	35.8	35.8	97	35.0	0	0	---	0.00	30.146 
05:15	35.8	35.8	35.8	97	35.0	0	0	---	0.00	30.149 
05:20	35.8	35.8	35.8	97	35.0	0	0	---	0.00	30.149 
05:25	35.8	35.8	35.8	97	35.0	0	0	---	0.00	30.149 
05:30	35.6	35.6	35.6	97	34.8	0	0	---	0.00	30.149 
05:35	35.6	35.6	35.6	97	34.8	0	0	---	0.00	30.149 
05:40	35.6	35.6	35.6	97	34.8	0	0	---	0.00	30.149 
05:45	35.6	35.6	35.6	97	34.8	0	0	---	0.00	30.148 
05:50	35.6	35.6	35.6	97	34.8	0	0	---	0.00	30.148 
05:55	35.6	35.6	35.6	97	34.8	0	0	---	0.00	30.148 
06:00	35.6	35.6	35.6	97	34.8	0	0	---	0.00	30.151 
06:05	35.6	35.6	35.6	97	34.8	0	0	---	0.00	30.151 
06:10	35.8	35.8	35.8	97	35.0	0	0	---	0.00	30.151 
06:15	35.8	35.8	35.8	97	35.0	0	0	---	0.00	30.163 
06:20	35.9	35.9	35.9	97	35.1	0	0	---	0.00	30.163 
06:25	35.9	35.9	35.9	97	35.1	0	0	---	0.00	30.163 
06:30	36.0	36.0	36.0	97	35.2	0	0	---	0.00	30.164 
06:35	36.2	36.2	36.2	97	35.4	0	0	---	0.00	30.164 
06:40	36.3	36.3	36.3	97	35.5	0	0	---	0.00	30.164 
06:45	36.5	36.5	36.5	97	35.7	0	0	---	0.00	30.166 
06:50	36.6	36.6	36.6	97	35.8	0	0	---	0.00	30.166 
06:55	36.6	36.6	36.6	97	35.8	0	0	---	0.00	30.166 
07:00	36.8	36.8	36.8	97	36.0	0	1	90	0.00	30.163 
07:05	36.8	36.8	36.8	97	36.0	0	1	90	0.00	30.163 
07:10	36.9	36.9	36.9	97	36.1	0	0	---	0.00	30.163 
07:15	36.9	36.9	36.9	97	36.1	0	1	90	0.00	30.166 
07:20	37.0	37.0	37.0	97	36.2	0	2	90	0.00	30.166 
07:25	37.0	37.0	37.0	97	36.2	0	1	90	0.00	30.166 
07:30	37.2	37.2	37.2	97	36.4	0	2	90	0.00	30.164 
07:35	37.2	37.2	37.2	97	36.4	0	1	90	0.00	30.164 
07:40	37.3	37.3	37.3	97	36.5	0	1	90	0.00	30.164 
07:45	37.3	37.3	37.3	97	36.5	0	1	90	0.00	30.166 
07:50	37.5	37.5	37.5	97	36.7	0	1	90	0.00	30.166 
07:55	37.6	37.6	37.6	97	36.8	0	2	90	0.00	30.166 
08:00	37.6	37.6	37.6	97	36.8	0	2	90	0.00	30.164 
08:05	37.8	37.8	37.8	97	37.0	0	1	90	0.00	30.164 
08:10	37.8	37.8	37.8	97	37.0	0	1	90	0.00	30.164 
08:15	37.9	37.9	37.9	97	37.1	0	2	90	0.00	30.167 
08:20	37.9	37.9	37.9	97	37.1	0	2	90	0.00	30.167 
08:25	38.0	38.0	38.0	97	37.2	0	2	90	0.00	30.167 
08:30	38.0	38.0	38.0	97	37.2	0	1	90	0.00	30.167 
08:35	38.0	38.0	38.0	97	37.2	1	2	90	0.00	30.167 
08:40	38.0	38.0	38.0	97	37.2	0	2	90	0.00	30.167 
08:45	38.0	38.0	38.0	97	37.2	0	2	90	0.00	30.169 
08:50	38.2	38.2	38.2	97	37.4	0	2	90	0.00	30.169 
08:55	38.2	38.2	38.2	97	37.4	0	2	90	0.00	30.169 
09:00	38.3	38.3	38.3	97	37.5	0	2	90	0.00	30.169 
09:05	38.5	38.5	38.5	97	37.7	1	3	90	0.00	30.169 
09:10	38.5	38.5	38.5	97	37.7	0	2	90	0.00	30.169 
09:15	38.6	38.6	38.6	97	37.8	1	3	90	0.00	30.166 
09:20	38.8	38.8	38.8	97	38.0	1	3	112	0.00	30.166 
09:25	38.9	38.9	38.9	97	38.1	2	4	112	0.00	30.166 
09:30	39.1	39.1	39.1	97	38.3	2	4	112	0.00	30.162 
09:35	39.2	39.2	39.2	97	38.4	1	3	248	0.00	30.162 
09:40	39.3	39.3	39.3	97	38.5	0	2	248	0.00	30.162 
09:45	39.5	39.5	39.5	97	38.7	0	2	248	0.00	30.169 
09:50	39.6	39.6	39.6	97	38.8	0	2	248	0.00	30.169 
09:55	39.6	39.6	39.6	97	38.8	1	2	158	0.00	30.169 
10:00	39.8	39.8	39.8	97	39.0	1	3	112	0.00	30.165 
10:05	39.9	39.9	39.9	97	39.1	0	1	112	0.00	30.165 
10:10	40.1	40.1	40.1	97	39.3	0	1	112	0.00	30.165 
10:15	40.1	40.1	40.1	97	39.3	1	3	112	0.00	30.165 
10:20	40.2	40.2	40.2	97	39.4	0	2	112	0.00	30.165 
10:25	40.5	40.5	40.5	97	39.7	0	2	112	0.00	30.165 
10:30	40.6	40.6	40.6	97	39.8	1	2	112	0.00	30.162 
10:35	40.8	40.8	40.8	97	40.0	1	2	112	0.00	30.162 
10:40	40.8	40.8	40.8	97	40.0	2	4	112	0.00	30.162 
10:45	40.9	40.9	40.9	97	40.1	1	4	90	0.00	30.153 
10:50	41.1	41.1	41.1	97	40.3	1	3	90	0.00	30.153 
10:55	41.3	41.3	41.3	97	40.5	1	3	112	0.00	30.153 
11:00	41.5	41.5	41.5	97	40.7	1	4	112	0.00	30.152 
11:05	41.6	41.6	41.6	97	40.8	0	2	112	0.00	30.152 
11:10	41.8	41.8	41.8	97	41.0	0	2	112	0.00	30.152 
11:15	41.9	41.9	41.9	97	41.1	1	2	112	0.00	30.146 
11:20	41.9	41.9	41.9	97	41.1	1	2	112	0.00	30.146 
11:25	42.1	42.1	42.1	97	41.3	1	2	112	0.00	30.146 
11:30	42.3	42.3	42.3	97	41.5	1	3	112	0.00	30.141 
11:35	42.5	42.5	42.5	97	41.7	1	3	112	0.00	30.141 
11:40	42.6	42.6	42.6	97	41.8	0	2	90	0.00	30.141 
11:45	42.9	42.9	42.9	97	42.1	0	3	90	0.00	30.138 
11:50	43.1	43.1	43.1	97	42.3	1	3	90	0.00	30.138 
11:55	43.1	43.1	43.1	97	42.3	1	3	90	0.00	30.138 
12:00	43.3	43.3	43.3	97	42.5	1	3	90	0.00	30.132 
12:05	43.5	43.5	43.5	97	42.7	1	3	90	0.00	30.132 
12:10	43.9	43.9	43.9	97	43.1	1	3	90	0.00	30.132 
12:15	44.2	44.2	44.2	97	43.4	1	4	90	0.00	30.120 
12:20	44.3	44.3	44.3	97	43.5	1	3	90	0.00	30.120 
12:25	44.5	44.5	44.5	97	43.7	1	3	90	0.00	30.120 
12:30	44.6	44.6	44.6	97	43.8	1	3	90	0.00	30.114 
12:35	44.9	44.9	44.9	97	44.1	1	2	90	0.00	30.114 
12:40	45.2	45.2	45.2	97	44.4	0	2	90	0.00	30.114 
12:45	45.4	45.4	45.4	97	44.6	1	3	90	0.00	30.104 
12:50	45.5	45.5	45.5	97	44.7	1	3	90	0.00	30.104 
12:55	45.7	45.7	45.7	97	44.9	1	3	90	0.00	30.104 
13:00	46.0	46.0	46.0	97	45.2	1	3	90	0.00	30.096 
13:05	46.2	46.2	46.2	97	45.4	0	2	90	0.00	30.096 
13:10	46.5	46.5	46.5	97	45.7	1	3	90	0.00	30.096 
13:15	46.8	46.8	46.8	97	46.0	1	3	90	0.00	30.083 
13:20	47.1	47.1	47.1	97	46.3	1	2	90	0.00	30.083 
13:25	47.3	47.3	47.3	97	46.5	1	3	90	0.00	30.083 
13:30	47.6	47.6	47.6	97	46.8	1	3	90	0.00	30.074 
13:35	47.9	47.9	47.9	97	47.1	1	4	90	0.00	30.074 
13:40	48.2	48.2	48.2	96	47.1	1	3	90	0.00	30.074 
13:45	48.5	48.5	48.5	96	47.4	1	4	90	0.00	30.064 
13:50	48.8	48.8	48.8	96	47.7	2	4	112	0.00	30.064 
13:55	48.9	48.9	48.9	96	47.8	2	6	90	0.00	30.064 
14:00	49.2	49.2	49.2	96	48.1	2	4	112	0.00	30.051 
14:05	49.2	49.2	49.2	95	47.8	2	5	112	0.00	30.051 
14:10	49.4	49.4	49.4	95	48.0	2	5	112	0.00	30.051 
14:15	49.4	49.4	49.4	94	47.7	2	5	90	0.00	30.047 
14:20	49.5	49.5	49.5	94	47.8	1	3	90	0.00	30.047 
14:25	49.6	49.6	49.6	93	47.7	1	3	90	0.00	30.047 
14:30	49.6	49.6	49.6	93	47.7	2	4	112	0.00	30.039 
14:35	49.8	49.8	49.8	92	47.6	1	3	112	0.00	30.039 
14:40	49.9	49.9	49.9	92	47.7	2	4	112	0.00	30.039 
14:45	50.1	50.1	50.1	92	47.9	2	4	112	0.00	30.034 
14:50	50.2	50.2	50.2	91	47.7	2	4	112	0.00	30.034 
14:55	50.5	50.5	50.5	91	48.0	1	3	112	0.00	30.034 
15:00	50.8	50.8	50.8	90	48.0	1	3	112	0.00	30.032 
15:05	50.8	50.8	50.8	89	47.7	1	3	90	0.00	30.032 
15:10	51.0	51.0	51.0	88	47.6	1	4	112	0.00	30.032 
15:15	51.0	51.0	51.0	88	47.6	1	3	135	0.00	30.033 
15:20	51.1	51.1	51.1	87	47.4	1	3	90	0.00	30.033 
15:25	51.3	51.3	51.3	86	47.3	2	4	112	0.00	30.033 
15:30	51.4	51.4	51.4	85	47.0	1	5	90	0.00	30.031 
15:35	51.6	51.6	51.6	85	47.2	2	5	112	0.00	30.031 
15:40	51.7	51.7	51.7	84	47.0	2	6	135	0.00	30.031 
15:45	51.7	51.7	51.7	84	47.0	1	5	135	0.00	30.021 
15:50	51.7	51.7	51.7	84	47.0	2	4	90	0.00	30.021 
15:55	51.7	51.7	51.7	84	47.0	2	5	90	0.00	30.021 
16:00	51.7	51.7	51.7	84	47.0	2	7	90	0.00	30.016 
16:05	51.6	51.6	51.6	84	46.9	2	6	90	0.00	30.016 
16:10	51.6	51.6	51.6	84	46.9	1	5	112	0.00	30.016 
16:15	51.6	51.6	51.6	84	46.9	2	5	112	0.00	30.009 
16:20	51.6	51.6	51.6	85	47.2	1	6	112	0.00	30.009 
16:25	51.4	51.4	51.4	85	47.0	2	5	90	0.00	30.009 
16:30	51.4	51.4	51.4	85	47.0	1	4	112	0.00	30.003 
16:35	51.4	51.4	51.4	84	46.7	2	6	90	0.00	30.003 
16:40	51.3	51.3	51.3	84	46.6	2	7	90	0.00	30.003 
16:45	51.3	51.3	51.3	85	46.9	1	6	112	0.00	30.001 
16:50	51.3	51.3	51.3	85	46.9	1	5	135	0.00	30.001 
16:55	51.1	51.1	51.1	85	46.7	1	3	112	0.00	30.001 
17:00	51.1	51.1	51.1	85	46.7	1	3	112	0.00	30.002 
17:05	51.0	51.0	51.0	85	46.7	1	4	315	0.00	30.002 
17:10	51.0	51.0	51.0	85	46.7	1	5	135	0.00	30.002 
17:15	51.0	51.0	51.0	86	47.0	1	4	90	0.00	30.000 
17:20	51.0	51.0	51.0	86	47.0	2	4	90	0.00	30.000 
17:25	50.8	50.8	50.8	86	46.8	1	5	90	0.00	30.000 
17:30	50.8	50.8	50.8	86	46.8	1	3	112	0.00	29.994 
17:35	50.7	50.7	50.7	86	46.7	1	4	90	0.00	29.994 
17:40	50.7	50.7	50.7	87	47.0	1	5	112	0.00	29.994 
17:45	50.5	50.5	50.5	87	46.8	1	6	90	0.00	29.988 
17:50	50.5	50.5	50.5	87	46.8	2	6	90	0.00	29.988 
17:55	50.5	50.5	50.5	88	47.1	2	5	90	0.00	29.988 
18:00	50.4	50.4	50.4	88	47.0	2	5	112	0.00	29.986 
18:05	50.4	50.4	50.4	88	47.0	1	7	112	0.00	29.986 
18:10	50.4	50.4	50.4	88	47.0	2	5	112	0.00	29.986 
18:15	50.2	50.2	50.2	88	46.8	2	4	112	0.00	29.986 
18:20	50.2	50.2	50.2	89	47.1	1	6	135	0.00	29.986 
18:25	50.1	50.1	50.1	89	47.0	2	5	90	0.00	29.986 
18:30	50.1	50.1	50.1	89	47.0	2	6	112	0.00	29.981 
18:35	50.1	50.1	50.1	89	47.0	2	5	112	0.00	29.981 
18:40	49.9	49.9	49.9	89	46.8	2	7	112	0.00	29.981 
18:45	49.9	49.9	49.9	89	46.8	2	4	112	0.00	29.971 
18:50	49.9	49.9	49.9	89	46.8	2	6	90	0.00	29.971 
18:55	49.9	49.9	49.9	89	46.8	2	6	112	0.00	29.971 
19:00	49.9	49.9	49.9	89	46.8	1	4	112	0.00	29.973 
19:05	49.9	49.9	49.9	90	47.1	1	3	90	0.00	29.973 
19:10	49.9	49.9	49.9	90	47.1	1	3	135	0.00	29.973 
19:15	49.9	49.9	49.9	90	47.1	2	6	112	0.00	29.969 
19:20	49.9	49.9	49.9	90	47.1	2	6	112	0.00	29.969 
19:25	49.9	49.9	49.9	90	47.1	2	4	112	0.00	29.969 
19:30	49.9	49.9	49.9	90	47.1	2	4	90	0.00	29.968 
19:35	49.8	49.8	49.8	90	47.0	1	4	68	0.00	29.968 
19:40	49.8	49.8	49.8	90	47.0	1	4	90	0.00	29.968 
19:45	49.8	49.8	49.8	90	47.0	1	4	90	0.00	29.968 
19:50	49.8	49.8	49.8	90	47.0	1	3	135	0.00	29.968 
19:55	49.8	49.8	49.8	90	47.0	1	4	112	0.00	29.968 
20:00	49.8	49.8	49.8	90	47.0	1	3	248	0.00	29.966 
20:05	49.8	49.8	49.8	91	47.3	1	5	90	0.00	29.966 
20:10	49.8	49.8	49.8	91	47.3	1	4	135	0.00	29.966 
20:15	49.8	49.8	49.8	91	47.3	1	3	135	0.00	29.961 
20:20	49.6	49.6	49.6	91	47.1	0	2	112	0.00	29.961 
20:25	49.6	49.6	49.6	91	47.1	1	4	90	0.00	29.961 
20:30	49.6	49.6	49.6	91	47.1	1	3	90	0.00	29.952 
20:35	49.5	49.5	49.5	91	47.0	1	5	112	0.00	29.952 
20:40	49.5	49.5	49.5	91	47.0	1	3	135	0.00	29.952 
20:45	49.5	49.5	49.5	91	47.0	1	4	112	0.00	29.949 
20:50	49.5	49.5	49.5	91	47.0	2	6	112	0.00	29.949 
20:55	49.5	49.5	49.5	91	47.0	1	3	112	0.00	29.949 
21:00	49.4	49.4	49.4	91	46.9	2	4	68	0.00	29.951 
21:05	49.4	49.4	49.4	91	46.9	1	5	112	0.00	29.951 
21:10	49.4	49.4	49.4	91	46.9	2	4	90	0.00	29.951 
21:15	49.4	49.4	49.4	92	47.2	2	6	68	0.00	29.937 
21:20	49.4	49.4	49.4	92	47.2	2	6	90	0.00	29.937 
21:25	49.4	49.4	49.4	92	47.2	2	5	135	0.00	29.937 
21:30	49.4	49.4	49.4	92	47.2	1	4	112	0.00	29.938 
21:35	49.4	49.4	49.4	92	47.2	2	4	112	0.00	29.938 
21:40	49.4	49.4	49.4	92	47.2	2	5	90	0.00	29.938 
21:45	49.4	49.4	49.4	92	47.2	2	5	90	0.00	29.936 
21:50	49.4	49.4	49.4	92	47.2	2	6	90	0.01	29.936 
21:55	49.4	49.4	49.4	92	47.2	2	7	90	0.01	29.936 
22:00	49.4	49.4	49.4	92	47.2	2	7	112	0.00	29.928 
22:05	49.4	49.4	49.4	93	47.5	2	6	90	0.01	29.928 
22:10	49.4	49.4	49.4	93	47.5	2	6	90	0.00	29.928 
22:15	49.4	49.4	49.4	93	47.5	2	5	90	0.00	29.921 
22:20	49.4	49.4	49.4	93	47.5	2	5	68	0.00	29.921 
22:25	49.2	49.2	49.2	93	47.3	1	3	112	0.01	29.921 
22:30	49.2	49.2	49.2	93	47.3	1	2	90	0.01	29.918 
22:35	49.2	49.2	49.2	94	47.5	1	4	112	0.01	29.918 
22:40	49.2	49.2	49.2	94	47.5	2	6	135	0.01	29.918 
22:45	49.2	49.2	49.2	94	47.5	2	4	90	0.01	29.904 
22:50	49.1	49.1	49.1	94	47.4	1	4	68	0.00	29.904 
22:55	49.1	49.1	49.1	94	47.4	1	3	158	0.01	29.904 
23:00	49.2	49.2	49.2	94	47.5	1	4	112	0.00	29.903 
23:05	49.2	49.2	49.2	94	47.5	1	4	112	0.00	29.903 
23:10	49.2	49.2	49.2	95	47.8	2	5	90	0.01	29.903 
23:15	49.2	49.2	49.2	95	47.8	2	5	90	0.00	29.899 
23:20	49.2	49.2	49.2	95	47.8	1	4	112	0.01	29.899 
23:25	49.2	49.2	49.2	95	47.8	1	3	90	0.00	29.899 
23:30	49.2	49.2	49.2	95	47.8	1	4	158	0.02	29.886 
23:35	49.2	49.2	49.2	95	47.8	1	3	112	0.01	29.886 
23:40	49.2	49.2	49.2	95	47.8	2	5	112	0.00	29.886 
23:45	49.2	49.2	49.2	95	47.8	1	4	90	0.00	29.872 
23:50	49.2	49.2	49.2	95	47.8	2	6	135	0.00	29.872 
23:55	49.2	49.2	49.2	95	47.8	1	4	158	0.00	29.872 

CoCoRaHS
IN-AL-39
A2 Web Hosting
Creative Commons License
GoDaddy
search engine by freefind advanced

loaded 2018-11-19 18:53:18 • last modified 2010-11-18 10:43:29
Privacy PolicyDisclaimer
• wx.awcolley.com is powered by PmWiki v.2002016 •
• all content (unless otherwise noted) © 2018 A W Colley